createdAt,value
2018-09-06T00:01:44.159Z,68.90
2018-09-06T00:04:14.168Z,69.10
2018-09-06T00:06:44.206Z,69.70
2018-09-06T00:09:14.319Z,69.70
2018-09-06T00:11:44.522Z,70.10
2018-09-06T00:14:15.180Z,70.30
2018-09-06T00:16:45.159Z,70.70
2018-09-06T00:19:15.626Z,70.80
2018-09-06T00:21:45.585Z,71.00
2018-09-06T00:24:16.140Z,71.00
2018-09-06T00:26:46.091Z,70.80
2018-09-06T00:29:16.344Z,70.50
2018-09-06T00:31:46.337Z,70.70
2018-09-06T00:34:16.500Z,70.70
2018-09-06T00:36:46.564Z,71.40
2018-09-06T00:39:16.801Z,71.40
2018-09-06T00:41:47.108Z,71.60
2018-09-06T00:44:17.346Z,71.60
2018-09-06T00:46:47.614Z,71.50
2018-09-06T00:49:17.804Z,71.50
2018-09-06T00:51:47.947Z,71.50
2018-09-06T00:54:18.063Z,72.00
2018-09-06T00:56:48.220Z,71.80
2018-09-06T00:59:22.492Z,72.00
2018-09-06T01:01:52.818Z,72.30
2018-09-06T01:04:22.761Z,73.10
2018-09-06T01:06:52.930Z,73.80
2018-09-06T01:09:22.930Z,74.10
2018-09-06T01:11:52.985Z,74.50
2018-09-06T01:14:23.025Z,74.20
2018-09-06T01:16:52.961Z,74.00
2018-09-06T01:19:22.863Z,73.60
2018-09-06T01:21:52.808Z,73.40
2018-09-06T01:26:56.883Z,73.30
2018-09-06T01:29:26.887Z,73.30
2018-09-06T01:31:56.919Z,73.20
2018-09-06T01:34:26.895Z,73.10
2018-09-06T01:36:56.896Z,73.50
2018-09-06T01:39:26.928Z,73.30
2018-09-06T01:41:56.945Z,73.40
2018-09-06T01:44:26.947Z,73.10
2018-09-06T01:46:57.156Z,73.60
2018-09-06T01:49:27.219Z,73.60
2018-09-06T01:51:57.225Z,73.70
2018-09-06T01:54:27.273Z,73.70
2018-09-06T01:56:58.140Z,73.40
2018-09-06T01:59:34.305Z,73.70
2018-09-06T02:02:06.465Z,73.70
2018-09-06T02:04:40.875Z,73.80
2018-09-06T02:07:12.987Z,73.80
2018-09-06T02:09:44.935Z,74.40
2018-09-06T02:12:15.401Z,75.10
2018-09-06T02:14:47.024Z,76.10
2018-09-06T02:17:17.092Z,76.10
2018-09-06T02:19:47.538Z,76.10
2018-09-06T02:22:17.580Z,76.40
2018-09-06T02:24:47.661Z,76.10
2018-09-06T02:27:17.704Z,76.10
2018-09-06T02:29:47.740Z,76.10
2018-09-06T02:32:17.708Z,76.20
2018-09-06T02:34:49.423Z,76.30
2018-09-06T02:37:19.540Z,76.10
2018-09-06T02:39:53.081Z,76.20
2018-09-06T02:42:23.021Z,76.10
2018-09-06T02:44:53.290Z,75.50
2018-09-06T02:47:23.272Z,75.30
2018-09-06T02:49:58.903Z,75.20
2018-09-06T02:52:28.892Z,75.20
2018-09-06T02:55:00.262Z,75.90
2018-09-06T02:57:31.523Z,76.30
2018-09-06T03:00:01.533Z,76.20
2018-09-06T03:02:33.567Z,76.20
2018-09-06T03:05:06.842Z,76.20
2018-09-06T03:07:40.809Z,76.70
2018-09-06T03:10:12.627Z,76.20
2018-09-06T03:15:53.560Z,76.30
2018-09-06T03:18:23.682Z,77.40
2018-09-06T03:20:53.655Z,78.50
2018-09-06T03:23:23.692Z,78.60
2018-09-06T03:25:53.841Z,78.80
2018-09-06T03:28:23.794Z,78.40
2018-09-06T03:30:53.819Z,78.20
2018-09-06T03:33:23.848Z,79.00
2018-09-06T03:35:53.954Z,79.00
2018-09-06T03:38:23.931Z,79.50
2018-09-06T03:40:53.947Z,79.90
2018-09-06T03:43:23.931Z,79.60
2018-09-06T03:45:53.894Z,79.60
2018-09-06T03:48:23.875Z,79.50
2018-09-06T03:50:53.856Z,79.50
2018-09-06T03:53:24.107Z,79.50
2018-09-06T03:55:54.111Z,80.10
2018-09-06T03:58:24.112Z,80.30
2018-09-06T04:00:54.164Z,80.40
2018-09-06T04:03:24.247Z,81.40
2018-09-06T04:05:54.313Z,80.60
2018-09-06T04:08:24.270Z,81.10
2018-09-06T04:10:54.239Z,80.90
2018-09-06T04:13:24.271Z,81.30
2018-09-06T04:15:54.319Z,81.70
2018-09-06T04:18:25.328Z,81.80
2018-09-06T04:20:55.368Z,83.60
2018-09-06T04:23:25.360Z,84.90
2018-09-06T04:25:55.491Z,85.00
2018-09-06T04:28:25.479Z,85.30
2018-09-06T04:30:55.472Z,85.10
2018-09-06T04:33:25.502Z,85.20
2018-09-06T04:35:55.497Z,84.90
2018-09-06T04:38:25.648Z,85.00
2018-09-06T04:40:55.702Z,85.00
2018-09-06T04:43:26.281Z,85.00
2018-09-06T04:45:57.101Z,85.00
2018-09-06T04:48:27.254Z,85.00
2018-09-06T04:50:57.321Z,85.10
2018-09-06T04:53:27.387Z,85.00
2018-09-06T04:55:57.347Z,85.10
2018-09-06T04:58:28.774Z,85.10
2018-09-06T05:01:00.795Z,84.30
2018-09-06T05:03:31.613Z,84.40
2018-09-06T05:06:02.667Z,84.30
2018-09-06T05:08:35.446Z,84.00
2018-09-06T05:11:06.664Z,83.50
2018-09-06T05:13:40.163Z,82.70
2018-09-06T05:16:12.935Z,82.10
2018-09-06T05:18:44.321Z,81.30
2018-09-06T05:21:15.967Z,81.10
2018-09-06T05:23:46.728Z,81.00
2018-09-06T05:26:18.174Z,81.00
2018-09-06T05:28:48.361Z,81.00
2018-09-06T05:31:18.402Z,81.00
2018-09-06T05:33:48.346Z,81.00
2018-09-06T05:36:18.852Z,81.10
2018-09-06T05:38:49.390Z,81.40
2018-09-06T05:41:19.742Z,81.50
2018-09-06T05:43:49.830Z,81.20
2018-09-06T05:46:19.913Z,81.10
2018-09-06T05:48:50.349Z,82.00
2018-09-06T05:51:21.339Z,81.20
2018-09-06T05:53:51.326Z,81.10
2018-09-06T05:56:21.283Z,81.30
2018-09-06T05:58:51.284Z,81.20
2018-09-06T06:01:21.678Z,80.70
2018-09-06T06:03:54.549Z,80.20
2018-09-06T06:06:24.596Z,80.70
2018-09-06T06:08:54.855Z,80.00
2018-09-06T06:11:25.202Z,79.70
2018-09-06T06:13:55.189Z,79.00
2018-09-06T06:16:25.375Z,79.40
2018-09-06T06:18:55.490Z,79.00
2018-09-06T06:21:25.612Z,78.30
2018-09-06T06:23:55.610Z,78.30
2018-09-06T06:26:25.735Z,78.00
2018-09-06T06:28:56.135Z,78.00
2018-09-06T06:31:27.066Z,77.80
2018-09-06T06:33:57.097Z,78.10
2018-09-06T06:36:27.622Z,77.00
2018-09-06T06:38:59.035Z,76.40
2018-09-06T06:41:32.798Z,76.90
2018-09-06T06:44:06.028Z,77.10
2018-09-06T06:46:38.088Z,77.00
2018-09-06T06:49:10.389Z,75.70
2018-09-06T06:51:41.440Z,75.00
2018-09-06T06:54:12.455Z,74.80
2018-09-06T06:56:43.910Z,75.00
2018-09-06T06:59:14.517Z,75.50
2018-09-06T07:01:44.932Z,74.80
2018-09-06T07:04:15.802Z,75.40
2018-09-06T07:06:46.643Z,73.80
2018-09-06T07:09:17.873Z,73.80
2018-09-06T07:11:48.738Z,72.70
2018-09-06T07:14:18.915Z,72.70
2018-09-06T07:16:49.177Z,72.70
2018-09-06T07:19:19.183Z,72.80
2018-09-06T07:21:49.541Z,70.80
2018-09-06T07:24:19.598Z,71.80
2018-09-06T07:26:49.545Z,70.60
2018-09-06T07:29:19.632Z,69.20
2018-09-06T07:31:53.790Z,68.20
2018-09-06T07:34:23.759Z,68.30
2018-09-06T07:36:53.781Z,69.30
2018-09-06T07:39:23.853Z,68.50
2018-09-06T07:41:53.937Z,67.70
2018-09-06T07:44:23.997Z,67.80
2018-09-06T07:46:54.053Z,66.40
2018-09-06T07:49:23.950Z,66.20
2018-09-06T07:51:54.019Z,66.10
2018-09-06T07:54:24.061Z,64.60
2018-09-06T07:56:54.144Z,64.10
2018-09-06T07:59:24.120Z,64.30
2018-09-06T08:01:54.088Z,63.80
2018-09-06T08:04:24.011Z,62.20
2018-09-06T08:06:54.012Z,61.50
2018-09-06T08:09:23.943Z,61.50
2018-09-06T08:11:53.988Z,61.80
2018-09-06T08:14:23.959Z,60.50
2018-09-06T08:16:53.972Z,60.40
2018-09-06T08:19:23.967Z,60.70
2018-09-06T08:21:53.964Z,59.30
2018-09-06T08:24:23.948Z,59.60
2018-09-06T08:26:53.894Z,59.30
2018-09-06T08:29:24.038Z,59.10
2018-09-06T08:31:54.064Z,59.50
2018-09-06T08:34:24.018Z,59.00
2018-09-06T08:36:54.069Z,59.30
2018-09-06T08:39:24.052Z,58.40
2018-09-06T08:41:54.032Z,57.70
2018-09-06T08:44:24.027Z,57.00
2018-09-06T08:46:54.084Z,57.50
2018-09-06T08:49:24.473Z,56.20
2018-09-06T08:52:01.518Z,56.50
2018-09-06T08:54:32.118Z,55.40
2018-09-06T08:57:02.170Z,55.40
2018-09-06T08:59:32.725Z,55.10
2018-09-06T09:02:02.766Z,54.60
2018-09-06T09:04:32.992Z,54.40
2018-09-06T09:07:03.370Z,53.70
2018-09-06T09:09:34.205Z,54.20
2018-09-06T09:12:04.380Z,53.10
2018-09-06T09:14:34.897Z,53.60
2018-09-06T09:17:05.545Z,53.20
2018-09-06T09:19:38.086Z,53.10
2018-09-06T09:22:10.186Z,53.10
2018-09-06T09:24:42.220Z,53.40
2018-09-06T09:27:13.263Z,52.20
2018-09-06T09:29:43.900Z,52.40
2018-09-06T09:32:14.764Z,52.30
2018-09-06T09:34:45.783Z,52.50
2018-09-06T09:37:16.510Z,51.80
2018-09-06T09:39:47.502Z,51.50
2018-09-06T09:42:18.018Z,51.30
2018-09-06T09:44:48.881Z,51.10
2018-09-06T09:49:51.175Z,50.90
2018-09-06T09:52:21.954Z,50.50
2018-09-06T09:54:51.931Z,51.00
2018-09-06T09:57:21.965Z,50.70
2018-09-06T09:59:51.969Z,51.00
2018-09-06T10:02:27.273Z,50.30
2018-09-06T10:05:02.901Z,49.90
2018-09-06T10:07:38.536Z,49.60
2018-09-06T10:10:11.397Z,49.60
2018-09-06T10:12:43.002Z,49.10
2018-09-06T10:15:15.483Z,50.00
2018-09-06T10:17:46.782Z,49.60
2018-09-06T10:20:17.841Z,48.50
2018-09-06T10:22:48.901Z,47.70
2018-09-06T10:25:19.660Z,47.30
2018-09-06T10:27:49.712Z,47.60
2018-09-06T10:30:20.921Z,48.20
2018-09-06T10:32:51.079Z,47.60
2018-09-06T10:35:21.203Z,47.40
2018-09-06T10:37:51.142Z,47.00
2018-09-06T10:40:21.192Z,45.90
2018-09-06T10:42:51.467Z,45.30
2018-09-06T10:45:21.439Z,44.30
2018-09-06T10:47:51.447Z,44.50
2018-09-06T10:50:21.461Z,44.50
2018-09-06T10:52:51.521Z,44.00
2018-09-06T10:55:22.541Z,44.30
2018-09-06T10:57:52.486Z,44.30
2018-09-06T11:00:22.484Z,43.60
2018-09-06T11:02:52.567Z,44.50
2018-09-06T11:05:22.547Z,43.60
2018-09-06T11:07:52.521Z,43.50
2018-09-06T11:10:22.773Z,44.20
2018-09-06T11:12:52.963Z,44.10
2018-09-06T11:16:26.321Z,44.60
2018-09-06T11:18:56.300Z,45.00
2018-09-06T11:21:26.342Z,44.90
2018-09-06T11:23:56.539Z,45.60
2018-09-06T11:26:26.699Z,44.10
2018-09-06T11:28:56.859Z,43.50
2018-09-06T11:31:27.181Z,42.80
2018-09-06T11:33:57.219Z,42.30
2018-09-06T11:36:27.265Z,41.60
2018-09-06T11:38:57.777Z,41.50
2018-09-06T11:41:28.028Z,41.80
2018-09-06T11:43:59.019Z,42.80
2018-09-06T11:46:30.372Z,43.00
2018-09-06T11:49:00.854Z,43.80
2018-09-06T11:51:31.519Z,43.30
2018-09-06T11:54:03.558Z,42.90
2018-09-06T11:56:35.119Z,43.10
2018-09-06T11:59:08.042Z,41.80
2018-09-06T12:01:43.176Z,41.60
2018-09-06T12:04:14.703Z,40.80
2018-09-06T12:06:45.947Z,41.10
2018-09-06T12:09:18.421Z,41.60
2018-09-06T12:11:48.432Z,42.20
2018-09-06T12:14:19.090Z,41.30
2018-09-06T12:16:50.236Z,41.60
2018-09-06T12:19:20.282Z,40.90
2018-09-06T12:21:50.397Z,40.10
2018-09-06T12:24:20.565Z,40.20
2018-09-06T12:26:50.634Z,39.50
2018-09-06T12:29:21.148Z,39.20
2018-09-06T12:31:51.252Z,40.10
2018-09-06T12:34:21.312Z,39.20
2018-09-06T12:36:51.264Z,39.90
2018-09-06T12:39:21.367Z,39.90
2018-09-06T12:41:51.388Z,40.10
2018-09-06T12:44:21.364Z,40.10
2018-09-06T12:46:51.355Z,39.00
2018-09-06T12:49:21.690Z,38.60
2018-09-06T12:51:51.734Z,38.60
2018-09-06T12:54:21.731Z,38.60
2018-09-06T12:56:51.670Z,37.70
2018-09-06T12:59:21.790Z,38.10
2018-09-06T13:01:51.807Z,38.40
2018-09-06T13:04:21.800Z,38.00
2018-09-06T13:06:51.803Z,38.00
2018-09-06T13:09:21.801Z,37.90
2018-09-06T13:11:52.019Z,37.90
2018-09-06T13:14:21.954Z,36.60
2018-09-06T13:16:51.955Z,36.70
2018-09-06T13:19:21.924Z,37.10
2018-09-06T13:21:51.871Z,36.50
2018-09-06T13:24:21.904Z,36.10
2018-09-06T13:26:59.962Z,36.10
2018-09-06T13:29:30.432Z,36.00
2018-09-06T13:32:01.344Z,36.10
2018-09-06T13:34:32.714Z,36.40
2018-09-06T13:37:04.472Z,36.00
2018-09-06T13:39:37.248Z,36.10
2018-09-06T13:42:10.492Z,36.10
2018-09-06T13:44:43.211Z,36.60
2018-09-06T13:47:14.955Z,36.50
2018-09-06T13:49:46.694Z,37.00
2018-09-06T13:52:17.436Z,37.00
2018-09-06T13:54:47.673Z,37.40
2018-09-06T13:57:17.812Z,37.40
2018-09-06T13:59:47.857Z,37.60
2018-09-06T14:02:17.890Z,38.30
2018-09-06T14:04:47.877Z,38.20
2018-09-06T14:07:19.184Z,38.00
2018-09-06T14:09:49.239Z,37.90
2018-09-06T14:12:20.074Z,38.00
2018-09-06T14:14:50.138Z,37.90
2018-09-06T14:17:20.592Z,37.90
2018-09-06T14:19:50.511Z,37.40
2018-09-06T14:22:20.654Z,37.20
2018-09-06T14:24:50.667Z,36.90
2018-09-06T14:27:21.411Z,36.50
2018-09-06T14:29:51.398Z,36.50
2018-09-06T14:32:21.600Z,36.90
2018-09-06T14:34:51.737Z,36.40
2018-09-06T14:37:21.740Z,35.90
2018-09-06T14:39:51.668Z,35.90
2018-09-06T14:42:21.626Z,36.40
2018-09-06T14:44:51.660Z,36.60
2018-09-06T14:47:21.664Z,37.40
2018-09-06T14:49:51.696Z,37.80
2018-09-06T14:52:21.658Z,38.10
2018-09-06T14:54:51.678Z,38.90
2018-09-06T14:57:21.731Z,38.70
2018-09-06T14:59:51.663Z,38.90
2018-09-06T15:02:22.039Z,38.70
2018-09-06T15:04:52.059Z,38.90
2018-09-06T15:07:22.085Z,38.90
2018-09-06T15:09:52.067Z,38.90
2018-09-06T15:12:22.041Z,39.20
2018-09-06T15:14:52.003Z,39.70
2018-09-06T15:17:22.099Z,39.90
2018-09-06T15:19:52.188Z,39.80
2018-09-06T15:22:22.194Z,39.80
2018-09-06T15:24:52.214Z,39.90
2018-09-06T15:27:22.508Z,40.10
2018-09-06T15:29:52.512Z,39.40
2018-09-06T15:32:22.545Z,39.80
2018-09-06T15:34:52.592Z,40.30
2018-09-06T15:37:22.527Z,39.80
2018-09-06T15:39:52.485Z,40.40
2018-09-06T15:42:22.450Z,39.70
2018-09-06T15:44:52.486Z,39.90
2018-09-06T15:47:22.631Z,40.10
2018-09-06T15:49:52.625Z,40.20
2018-09-06T15:52:22.650Z,40.20
2018-09-06T15:54:52.624Z,40.20
2018-09-06T15:57:22.716Z,40.20
2018-09-06T15:59:52.624Z,40.10
2018-09-06T16:02:22.610Z,40.10
2018-09-06T16:04:52.586Z,39.90
2018-09-06T16:07:22.568Z,40.00
2018-09-06T16:09:52.494Z,39.90
2018-09-06T16:12:22.461Z,40.00
2018-09-06T16:14:52.366Z,39.90
2018-09-06T16:17:22.397Z,40.40
2018-09-06T16:19:52.391Z,40.50
2018-09-06T16:22:22.373Z,41.30
2018-09-06T16:24:52.687Z,41.20
2018-09-06T16:27:22.591Z,41.50
2018-09-06T16:29:52.604Z,41.70
2018-09-06T16:32:22.635Z,42.20
2018-09-06T16:34:52.549Z,42.30
2018-09-06T16:37:22.528Z,42.40
2018-09-06T16:39:52.474Z,42.80
2018-09-06T16:42:22.539Z,43.10
2018-09-06T16:44:52.799Z,43.30
2018-09-06T16:47:22.808Z,43.60
2018-09-06T16:49:52.786Z,43.60
2018-09-06T16:52:23.033Z,44.00
2018-09-06T16:54:53.007Z,44.00
2018-09-06T16:57:22.918Z,44.10
2018-09-06T16:59:52.879Z,43.80
2018-09-06T17:02:22.824Z,44.40
2018-09-06T17:04:52.772Z,44.50
2018-09-06T17:07:22.786Z,44.40
2018-09-06T17:09:52.948Z,44.80
2018-09-06T17:12:23.208Z,44.60
2018-09-06T17:14:53.194Z,44.30
2018-09-06T17:17:23.491Z,44.80
2018-09-06T17:19:53.530Z,45.10
2018-09-06T17:22:23.573Z,45.30
2018-09-06T17:24:53.636Z,45.10
2018-09-06T17:27:23.596Z,45.40
2018-09-06T17:29:53.659Z,45.60
2018-09-06T17:32:23.725Z,46.10
2018-09-06T17:34:53.716Z,45.70
2018-09-06T17:37:24.319Z,46.00
2018-09-06T17:39:54.315Z,46.20
2018-09-06T17:42:24.352Z,47.60
2018-09-06T17:44:54.500Z,47.00
2018-09-06T17:47:24.623Z,47.00
2018-09-06T17:49:54.636Z,46.80
2018-09-06T17:52:24.820Z,47.00
2018-09-06T17:54:54.795Z,47.20
2018-09-06T17:57:24.736Z,47.90
2018-09-06T17:59:54.707Z,46.70
2018-09-06T18:02:24.691Z,46.80
2018-09-06T18:04:54.721Z,46.90
2018-09-06T18:07:24.674Z,47.70
2018-09-06T18:09:54.660Z,47.30
2018-09-06T18:12:24.781Z,47.80
2018-09-06T18:14:54.879Z,47.60
2018-09-06T18:17:24.871Z,47.80
2018-09-06T18:19:54.962Z,47.70
2018-09-06T18:22:25.000Z,47.90
2018-09-06T18:24:55.054Z,48.00
2018-09-06T18:27:25.839Z,48.00
2018-09-06T18:29:56.040Z,47.90
2018-09-06T18:32:26.124Z,48.00
2018-09-06T18:34:56.238Z,47.90
2018-09-06T18:37:26.400Z,47.90
2018-09-06T18:39:56.391Z,47.90
2018-09-06T18:42:26.526Z,48.30
2018-09-06T18:44:56.650Z,47.90
2018-09-06T18:47:26.719Z,48.20
2018-09-06T18:49:56.734Z,48.60
2018-09-06T18:52:26.704Z,48.30
2018-09-06T18:54:57.148Z,48.60
2018-09-06T18:57:27.148Z,48.90
2018-09-06T18:59:57.191Z,49.20
2018-09-06T19:02:27.114Z,49.00
2018-09-06T19:04:57.321Z,49.30
2018-09-06T19:07:27.309Z,49.40
2018-09-06T19:09:57.280Z,49.50
2018-09-06T19:12:27.248Z,50.00
2018-09-06T19:14:57.305Z,49.70
2018-09-06T19:17:27.279Z,49.70
2018-09-06T19:19:57.278Z,50.20
2018-09-06T19:22:27.396Z,50.10
2018-09-06T19:24:57.424Z,50.10
2018-09-06T19:27:27.499Z,50.00
2018-09-06T19:29:57.543Z,50.00
2018-09-06T19:32:27.908Z,50.00
2018-09-06T19:34:58.008Z,50.50
2018-09-06T19:37:28.028Z,49.90
2018-09-06T19:39:58.153Z,49.90
2018-09-06T19:42:28.190Z,50.20
2018-09-06T19:44:58.252Z,50.20
2018-09-06T19:47:28.431Z,50.60
2018-09-06T19:49:58.463Z,51.00
2018-09-06T19:52:28.447Z,51.00
2018-09-06T19:54:58.375Z,51.30
2018-09-06T19:57:28.546Z,51.50
2018-09-06T19:59:58.913Z,51.70
2018-09-06T20:02:29.401Z,52.10
2018-09-06T20:04:59.440Z,52.10
2018-09-06T20:07:29.436Z,52.10
2018-09-06T20:09:59.440Z,52.30
2018-09-06T20:12:29.496Z,51.90
2018-09-06T20:14:59.492Z,51.80
2018-09-06T20:17:29.556Z,51.70
2018-09-06T20:19:59.559Z,51.50
2018-09-06T20:22:29.585Z,51.60
2018-09-06T20:24:59.592Z,51.30
2018-09-06T20:27:29.527Z,51.10
2018-09-06T20:29:59.764Z,51.00
2018-09-06T20:32:29.775Z,50.70
2018-09-06T20:34:59.920Z,50.80
2018-09-06T20:37:29.838Z,50.90
2018-09-06T20:39:59.867Z,51.10
2018-09-06T20:42:29.862Z,51.00
2018-09-06T20:44:59.864Z,50.90
2018-09-06T20:47:29.913Z,51.10
2018-09-06T20:49:59.927Z,51.10
2018-09-06T20:52:30.968Z,51.50
2018-09-06T20:55:00.934Z,51.50
2018-09-06T20:57:30.987Z,51.70
2018-09-06T21:00:01.614Z,51.80
2018-09-06T21:02:38.180Z,51.80
2018-09-06T21:05:09.971Z,51.90
2018-09-06T21:07:39.975Z,52.20
2018-09-06T21:10:10.156Z,52.50
2018-09-06T21:12:40.145Z,52.40
2018-09-06T21:15:10.167Z,52.50
2018-09-06T21:17:40.263Z,52.60
2018-09-06T21:20:10.339Z,52.90
2018-09-06T21:22:40.334Z,53.20
2018-09-06T21:25:10.314Z,53.30
2018-09-06T21:27:40.387Z,53.80
2018-09-06T21:30:10.440Z,53.90
2018-09-06T21:32:40.399Z,53.90
2018-09-06T21:35:10.405Z,53.90
2018-09-06T21:37:42.797Z,53.90
2018-09-06T21:40:15.456Z,53.80
2018-09-06T21:42:47.746Z,53.80
2018-09-06T21:45:21.920Z,53.80
2018-09-06T21:47:53.455Z,53.80
2018-09-06T21:50:23.843Z,53.80
2018-09-06T21:52:54.442Z,54.20
2018-09-06T21:55:24.391Z,54.30
2018-09-06T21:57:54.402Z,54.40
2018-09-06T22:00:24.345Z,54.60
2018-09-06T22:02:59.533Z,54.80
2018-09-06T22:05:29.654Z,54.90
2018-09-06T22:07:59.946Z,54.70
2018-09-06T22:10:30.047Z,55.00
2018-09-06T22:13:00.933Z,55.10
2018-09-06T22:15:31.498Z,55.10
2018-09-06T22:18:01.508Z,55.10
2018-09-06T22:20:31.729Z,55.40
2018-09-06T22:23:01.772Z,55.60
2018-09-06T22:25:31.850Z,55.70
2018-09-06T22:28:01.908Z,56.20
2018-09-06T22:30:32.133Z,55.80
2018-09-06T22:33:02.112Z,55.80
2018-09-06T22:35:32.244Z,56.00
2018-09-06T22:38:02.221Z,56.20
2018-09-06T22:40:32.528Z,56.50
2018-09-06T22:43:02.557Z,56.50
2018-09-06T22:45:32.649Z,56.50
2018-09-06T22:48:02.653Z,57.10
2018-09-06T22:50:32.668Z,57.10
2018-09-06T22:53:02.678Z,57.20
2018-09-06T22:55:32.784Z,57.60
2018-09-06T22:58:02.765Z,57.60
2018-09-06T23:00:32.772Z,57.50
2018-09-06T23:03:08.340Z,57.50
2018-09-06T23:05:38.669Z,57.50
2018-09-06T23:08:09.188Z,57.70
2018-09-06T23:10:39.471Z,57.80
2018-09-06T23:13:09.764Z,58.10
2018-09-06T23:15:40.363Z,58.50
2018-09-06T23:18:10.770Z,58.60
2018-09-06T23:20:41.216Z,59.40
2018-09-06T23:23:11.555Z,59.00
2018-09-06T23:25:41.735Z,59.20
2018-09-06T23:28:12.310Z,59.40
2018-09-06T23:30:43.187Z,59.60
2018-09-06T23:33:13.461Z,59.60
2018-09-06T23:35:45.197Z,59.80
2018-09-06T23:38:17.172Z,60.00
2018-09-06T23:40:52.790Z,60.00
2018-09-06T23:43:23.943Z,59.90
2018-09-06T23:45:57.287Z,60.10
2018-09-06T23:48:28.781Z,60.00
2018-09-06T23:50:59.583Z,60.00
2018-09-06T23:53:29.823Z,60.00
2018-09-06T23:56:00.198Z,60.20
2018-09-06T23:58:30.719Z,60.00
